APG306 RPLL-RPVI
Flight info
| Callsign | APG306 |
|---|---|
| Flight time | 0h 52m |
| Altitude | 29000 |
| Route | VERDE2R VERDE A461 SAJ W3 BEDER BEDER1N |
| Aircraft | A320/M-SDE3FGHIRWY/LB1 |
Departure
| Time | 2026-05-05 15:05 |
|---|---|
| Airport | Ninoy Aquino International Airport (RPLL) |
Arrival
| Time | 2026-05-05 15:58 |
|---|---|
| Airport | Iloilo International Airport (RPVI) |
| Time | Latitude | Longitude | Altitude | Speed | Heading |
|---|---|---|---|---|---|
| 2026-05-05 14:41 | 14.50862 | 121.01337 | 68 ft | 0 kts | 329° |
| 2026-05-05 14:56 | 14.50845 | 121.01347 | 59 ft | 4 kts | 329° |
| 2026-05-05 14:56 | 14.50822 | 121.01362 | 63 ft | 4 kts | 326° |
| 2026-05-05 14:56 | 14.50803 | 121.01377 | 66 ft | 3 kts | 309° |
| 2026-05-05 14:57 | 14.50796 | 121.01388 | 61 ft | 2 kts | 270° |
| 2026-05-05 14:57 | 14.50798 | 121.01399 | 59 ft | 2 kts | 246° |
| 2026-05-05 14:57 | 14.50803 | 121.01410 | 68 ft | 2 kts | 242° |
| 2026-05-05 14:57 | 14.50805 | 121.01415 | 66 ft | 0 kts | 241° |
| 2026-05-05 14:59 | 14.50803 | 121.01411 | 67 ft | 3 kts | 240° |
| 2026-05-05 15:00 | 14.50786 | 121.01379 | 60 ft | 6 kts | 241° |
| 2026-05-05 15:00 | 14.50772 | 121.01354 | 62 ft | 7 kts | 241° |
| 2026-05-05 15:00 | 14.50722 | 121.01313 | 69 ft | 8 kts | 178° |
| 2026-05-05 15:00 | 14.50676 | 121.01315 | 61 ft | 7 kts | 194° |
| 2026-05-05 15:01 | 14.50639 | 121.01266 | 65 ft | 12 kts | 241° |
| 2026-05-05 15:01 | 14.50581 | 121.01162 | 67 ft | 21 kts | 239° |
| 2026-05-05 15:01 | 14.50506 | 121.01027 | 64 ft | 22 kts | 240° |
| 2026-05-05 15:01 | 14.50428 | 121.00887 | 63 ft | 23 kts | 240° |
| 2026-05-05 15:02 | 14.50347 | 121.00738 | 64 ft | 24 kts | 240° |
| 2026-05-05 15:02 | 14.50260 | 121.00582 | 68 ft | 26 kts | 239° |
| 2026-05-05 15:02 | 14.50170 | 121.00419 | 61 ft | 27 kts | 240° |
| 2026-05-05 15:02 | 14.50081 | 121.00263 | 65 ft | 24 kts | 240° |
| 2026-05-05 15:03 | 14.49999 | 121.00115 | 64 ft | 22 kts | 240° |
| 2026-05-05 15:03 | 14.49938 | 121.00001 | 69 ft | 14 kts | 240° |
| 2026-05-05 15:03 | 14.49871 | 120.99966 | 67 ft | 11 kts | 160° |
| 2026-05-05 15:03 | 14.49807 | 121.00009 | 66 ft | 12 kts | 142° |
| 2026-05-05 15:04 | 14.49815 | 121.00063 | 68 ft | 8 kts | 62° |
| 2026-05-05 15:04 | 14.49893 | 121.00208 | 64 ft | 54 kts | 61° |
| 2026-05-05 15:04 | 14.50196 | 121.00752 | 68 ft | 117 kts | 60° |
| 2026-05-05 15:04 | 14.50694 | 121.01638 | 71 ft | 166 kts | 59° |
| 2026-05-05 15:05 | 14.51889 | 121.03750 | 1223 ft | 172 kts | 61° |
| 2026-05-05 15:05 | 14.52499 | 121.04864 | 1596 ft | 188 kts | 61° |
| 2026-05-05 15:05 | 14.53184 | 121.06115 | 1826 ft | 213 kts | 61° |
| 2026-05-05 15:06 | 14.53955 | 121.07518 | 2148 ft | 237 kts | 61° |
| 2026-05-05 15:06 | 14.54794 | 121.09060 | 2675 ft | 252 kts | 62° |
| 2026-05-05 15:06 | 14.55655 | 121.10629 | 3439 ft | 255 kts | 61° |
| 2026-05-05 15:06 | 14.56373 | 121.12313 | 4181 ft | 259 kts | 79° |
| 2026-05-05 15:07 | 14.56356 | 121.14178 | 4881 ft | 264 kts | 105° |
| 2026-05-05 15:07 | 14.55511 | 121.15864 | 5561 ft | 270 kts | 131° |
| 2026-05-05 15:07 | 14.53975 | 121.16988 | 6283 ft | 276 kts | 158° |
| 2026-05-05 15:07 | 14.52067 | 121.17252 | 6973 ft | 283 kts | 184° |
| 2026-05-05 15:08 | 14.50100 | 121.16987 | 7685 ft | 287 kts | 186° |
| 2026-05-05 15:08 | 14.48113 | 121.16699 | 8406 ft | 290 kts | 186° |
| 2026-05-05 15:08 | 14.46103 | 121.16405 | 9117 ft | 294 kts | 186° |
| 2026-05-05 15:08 | 14.44065 | 121.16111 | 9826 ft | 297 kts | 186° |
| 2026-05-05 15:09 | 14.41992 | 121.15818 | 10321 ft | 308 kts | 186° |
| 2026-05-05 15:09 | 14.39815 | 121.15520 | 10458 ft | 331 kts | 186° |
| 2026-05-05 15:09 | 14.37457 | 121.15199 | 10612 ft | 352 kts | 186° |
| 2026-05-05 15:09 | 14.34994 | 121.14861 | 11058 ft | 360 kts | 186° |
| 2026-05-05 15:10 | 14.32494 | 121.14515 | 11653 ft | 364 kts | 186° |
| 2026-05-05 15:10 | 14.29978 | 121.14167 | 12240 ft | 367 kts | 186° |
| 2026-05-05 15:10 | 14.27441 | 121.13813 | 12849 ft | 369 kts | 186° |
| 2026-05-05 15:10 | 14.24884 | 121.13456 | 13441 ft | 372 kts | 186° |
| 2026-05-05 15:11 | 14.22308 | 121.13096 | 13994 ft | 375 kts | 186° |
| 2026-05-05 15:11 | 14.19714 | 121.12737 | 14491 ft | 377 kts | 186° |
| 2026-05-05 15:11 | 14.17101 | 121.12377 | 14981 ft | 381 kts | 186° |
| 2026-05-05 15:11 | 14.14466 | 121.12014 | 15459 ft | 384 kts | 186° |
| 2026-05-05 15:12 | 14.11808 | 121.11647 | 15934 ft | 387 kts | 186° |
| 2026-05-05 15:12 | 14.09133 | 121.11278 | 16405 ft | 390 kts | 186° |
| 2026-05-05 15:12 | 14.06430 | 121.10905 | 16875 ft | 393 kts | 186° |
| 2026-05-05 15:12 | 14.03715 | 121.10530 | 17343 ft | 396 kts | 186° |
| 2026-05-05 15:13 | 14.01008 | 121.10158 | 17798 ft | 399 kts | 186° |
| 2026-05-05 15:13 | 13.98252 | 121.09779 | 18253 ft | 402 kts | 186° |
| 2026-05-05 15:13 | 13.95469 | 121.09396 | 18652 ft | 404 kts | 187° |
| 2026-05-05 15:13 | 13.92673 | 121.09010 | 19071 ft | 406 kts | 187° |
| 2026-05-05 15:14 | 13.89862 | 121.08621 | 19486 ft | 409 kts | 187° |
| 2026-05-05 15:14 | 13.87036 | 121.08230 | 19918 ft | 411 kts | 187° |
| 2026-05-05 15:14 | 13.84200 | 121.07836 | 20332 ft | 413 kts | 187° |
| 2026-05-05 15:14 | 13.81346 | 121.07443 | 20732 ft | 415 kts | 187° |
| 2026-05-05 15:15 | 13.78476 | 121.07047 | 21134 ft | 417 kts | 187° |
| 2026-05-05 15:15 | 13.75595 | 121.06649 | 21525 ft | 419 kts | 187° |
| 2026-05-05 15:15 | 13.72701 | 121.06248 | 21917 ft | 421 kts | 187° |
| 2026-05-05 15:15 | 13.69796 | 121.05845 | 22296 ft | 422 kts | 187° |
| 2026-05-05 15:16 | 13.66874 | 121.05441 | 22658 ft | 424 kts | 187° |
| 2026-05-05 15:16 | 13.63944 | 121.05039 | 23012 ft | 426 kts | 187° |
| 2026-05-05 15:16 | 13.60995 | 121.04637 | 23365 ft | 428 kts | 187° |
| 2026-05-05 15:16 | 13.58032 | 121.04232 | 23669 ft | 430 kts | 187° |
| 2026-05-05 15:17 | 13.55098 | 121.03829 | 23949 ft | 432 kts | 187° |
| 2026-05-05 15:17 | 13.52113 | 121.03419 | 24226 ft | 434 kts | 187° |
| 2026-05-05 15:17 | 13.49103 | 121.03181 | 24497 ft | 435 kts | 180° |
| 2026-05-05 15:17 | 13.46071 | 121.03207 | 24769 ft | 437 kts | 179° |
| 2026-05-05 15:18 | 13.44052 | 121.03228 | 24949 ft | 438 kts | 179° |
| 2026-05-05 15:18 | 13.39971 | 121.03274 | 25291 ft | 440 kts | 179° |
| 2026-05-05 15:18 | 13.37141 | 121.03305 | 25528 ft | 441 kts | 179° |
| 2026-05-05 15:18 | 13.34065 | 121.03335 | 25779 ft | 443 kts | 179° |
| 2026-05-05 15:19 | 13.32027 | 121.03356 | 25942 ft | 444 kts | 179° |
| 2026-05-05 15:19 | 13.28932 | 121.03388 | 26185 ft | 445 kts | 179° |
| 2026-05-05 15:19 | 13.25834 | 121.03422 | 26430 ft | 447 kts | 179° |
| 2026-05-05 15:19 | 13.22715 | 121.03455 | 26684 ft | 448 kts | 179° |
| 2026-05-05 15:20 | 13.19589 | 121.03486 | 26932 ft | 450 kts | 179° |
| 2026-05-05 15:20 | 13.16453 | 121.03517 | 27167 ft | 451 kts | 179° |
| 2026-05-05 15:20 | 13.13304 | 121.03549 | 27383 ft | 453 kts | 179° |
| 2026-05-05 15:20 | 13.10148 | 121.03580 | 27609 ft | 455 kts | 179° |
| 2026-05-05 15:21 | 13.05946 | 121.03619 | 27895 ft | 457 kts | 180° |
| 2026-05-05 15:21 | 13.03791 | 121.03639 | 28040 ft | 458 kts | 179° |
| 2026-05-05 15:21 | 13.00598 | 121.03672 | 28240 ft | 460 kts | 180° |
| 2026-05-05 15:21 | 12.97445 | 121.03704 | 28459 ft | 460 kts | 180° |
| 2026-05-05 15:22 | 12.94237 | 121.03733 | 28665 ft | 462 kts | 180° |
| 2026-05-05 15:22 | 12.91016 | 121.03763 | 28864 ft | 463 kts | 180° |
| 2026-05-05 15:22 | 12.87801 | 121.03795 | 28954 ft | 460 kts | 180° |
| 2026-05-05 15:23 | 12.81453 | 121.03856 | 28964 ft | 455 kts | 179° |
| 2026-05-05 15:23 | 12.75129 | 121.03921 | 28954 ft | 454 kts | 180° |
| 2026-05-05 15:24 | 12.68806 | 121.03985 | 28953 ft | 455 kts | 179° |
| 2026-05-05 15:24 | 12.62468 | 121.04051 | 28947 ft | 455 kts | 179° |
| 2026-05-05 15:25 | 12.56136 | 121.04109 | 28941 ft | 455 kts | 180° |
| 2026-05-05 15:25 | 12.49792 | 121.04164 | 28931 ft | 455 kts | 179° |
| 2026-05-05 15:26 | 12.43503 | 121.04229 | 28927 ft | 455 kts | 179° |
| 2026-05-05 15:26 | 12.37276 | 121.05218 | 28917 ft | 455 kts | 160° |
| 2026-05-05 15:27 | 12.31794 | 121.08391 | 28913 ft | 456 kts | 140° |
| 2026-05-05 15:27 | 12.27148 | 121.12812 | 28913 ft | 456 kts | 137° |
| 2026-05-05 15:28 | 12.22520 | 121.17250 | 28912 ft | 456 kts | 137° |
| 2026-05-05 15:28 | 12.17885 | 121.21673 | 28911 ft | 456 kts | 137° |
| 2026-05-05 15:29 | 12.13247 | 121.26093 | 28910 ft | 456 kts | 137° |
| 2026-05-05 15:29 | 12.08639 | 121.30490 | 28908 ft | 455 kts | 137° |
| 2026-05-05 15:30 | 12.04014 | 121.34915 | 28904 ft | 456 kts | 137° |
| 2026-05-05 15:30 | 11.99386 | 121.39340 | 28904 ft | 456 kts | 137° |
| 2026-05-05 15:31 | 11.94749 | 121.43760 | 28910 ft | 456 kts | 137° |
| 2026-05-05 15:31 | 11.90112 | 121.48172 | 28911 ft | 456 kts | 137° |
| 2026-05-05 15:32 | 11.85474 | 121.52595 | 28909 ft | 456 kts | 137° |
| 2026-05-05 15:32 | 11.80844 | 121.57013 | 28904 ft | 456 kts | 137° |
| 2026-05-05 15:33 | 11.76996 | 121.60674 | 28906 ft | 455 kts | 137° |
| 2026-05-05 15:33 | 11.74056 | 121.63468 | 28905 ft | 455 kts | 137° |
| 2026-05-05 15:34 | 11.69426 | 121.67872 | 28899 ft | 455 kts | 137° |
| 2026-05-05 15:34 | 11.64819 | 121.72256 | 28902 ft | 455 kts | 137° |
| 2026-05-05 15:34 | 11.62499 | 121.74459 | 28691 ft | 456 kts | 137° |
| 2026-05-05 15:35 | 11.60172 | 121.76667 | 28435 ft | 456 kts | 137° |
| 2026-05-05 15:35 | 11.57859 | 121.78862 | 27878 ft | 452 kts | 137° |
| 2026-05-05 15:35 | 11.55554 | 121.81050 | 26889 ft | 455 kts | 137° |
| 2026-05-05 15:35 | 11.53242 | 121.83245 | 25747 ft | 451 kts | 137° |
| 2026-05-05 15:36 | 11.50963 | 121.85411 | 24668 ft | 444 kts | 136° |
| 2026-05-05 15:36 | 11.48715 | 121.87550 | 23653 ft | 438 kts | 136° |
| 2026-05-05 15:36 | 11.46505 | 121.89652 | 22506 ft | 432 kts | 136° |
| 2026-05-05 15:36 | 11.44321 | 121.91724 | 21384 ft | 426 kts | 136° |
| 2026-05-05 15:37 | 11.42191 | 121.93743 | 20411 ft | 420 kts | 136° |
| 2026-05-05 15:37 | 11.40101 | 121.95722 | 20116 ft | 396 kts | 136° |
| 2026-05-05 15:37 | 11.38154 | 121.97567 | 20032 ft | 370 kts | 136° |
| 2026-05-05 15:37 | 11.36263 | 121.99363 | 19959 ft | 373 kts | 136° |
| 2026-05-05 15:38 | 11.34364 | 122.01168 | 19887 ft | 374 kts | 136° |
| 2026-05-05 15:38 | 11.32449 | 122.02984 | 19315 ft | 377 kts | 136° |
| 2026-05-05 15:38 | 11.30523 | 122.04807 | 18423 ft | 377 kts | 136° |
| 2026-05-05 15:38 | 11.28605 | 122.06621 | 17442 ft | 376 kts | 136° |
| 2026-05-05 15:39 | 11.26692 | 122.08430 | 16458 ft | 375 kts | 136° |
| 2026-05-05 15:39 | 11.24790 | 122.10233 | 15513 ft | 373 kts | 136° |
| 2026-05-05 15:39 | 11.22897 | 122.12027 | 14599 ft | 370 kts | 136° |
| 2026-05-05 15:39 | 11.21016 | 122.13806 | 13712 ft | 368 kts | 136° |
| 2026-05-05 15:40 | 11.19154 | 122.15569 | 12740 ft | 364 kts | 136° |
| 2026-05-05 15:40 | 11.17308 | 122.17317 | 11794 ft | 359 kts | 136° |
| 2026-05-05 15:40 | 11.15491 | 122.19035 | 10898 ft | 354 kts | 136° |
| 2026-05-05 15:40 | 11.13747 | 122.20684 | 10536 ft | 334 kts | 136° |
| 2026-05-05 15:41 | 11.12107 | 122.22234 | 10425 ft | 310 kts | 137° |
| 2026-05-05 15:41 | 11.10566 | 122.23693 | 10092 ft | 296 kts | 136° |
| 2026-05-05 15:41 | 11.09080 | 122.25102 | 9615 ft | 289 kts | 136° |
| 2026-05-05 15:41 | 11.07623 | 122.26486 | 9013 ft | 284 kts | 136° |
| 2026-05-05 15:42 | 11.06183 | 122.27849 | 8385 ft | 281 kts | 136° |
| 2026-05-05 15:42 | 11.04758 | 122.29192 | 8089 ft | 279 kts | 136° |
| 2026-05-05 15:42 | 11.03329 | 122.30539 | 8021 ft | 280 kts | 136° |
| 2026-05-05 15:42 | 11.01893 | 122.31888 | 8026 ft | 281 kts | 136° |
| 2026-05-05 15:43 | 11.00444 | 122.33244 | 8020 ft | 282 kts | 136° |
| 2026-05-05 15:43 | 10.99002 | 122.34593 | 8021 ft | 282 kts | 136° |
| 2026-05-05 15:43 | 10.97579 | 122.35925 | 8018 ft | 282 kts | 136° |
| 2026-05-05 15:43 | 10.96137 | 122.37274 | 8027 ft | 282 kts | 136° |
| 2026-05-05 15:44 | 10.94694 | 122.38625 | 8025 ft | 282 kts | 136° |
| 2026-05-05 15:44 | 10.93253 | 122.39972 | 8017 ft | 282 kts | 136° |
| 2026-05-05 15:44 | 10.91808 | 122.41323 | 8018 ft | 282 kts | 136° |
| 2026-05-05 15:44 | 10.90363 | 122.42672 | 8014 ft | 282 kts | 136° |
| 2026-05-05 15:45 | 10.88912 | 122.44022 | 8020 ft | 282 kts | 136° |
| 2026-05-05 15:45 | 10.87467 | 122.45379 | 8018 ft | 282 kts | 133° |
| 2026-05-05 15:45 | 10.86434 | 122.47044 | 8008 ft | 280 kts | 107° |
| 2026-05-05 15:45 | 10.86144 | 122.48999 | 8013 ft | 280 kts | 95° |
| 2026-05-05 15:46 | 10.85591 | 122.50873 | 8013 ft | 280 kts | 123° |
| 2026-05-05 15:46 | 10.84156 | 122.52192 | 8018 ft | 282 kts | 147° |
| 2026-05-05 15:46 | 10.82586 | 122.53375 | 8006 ft | 281 kts | 130° |
| 2026-05-05 15:46 | 10.81630 | 122.55072 | 7798 ft | 276 kts | 105° |
| 2026-05-05 15:47 | 10.81531 | 122.56999 | 7403 ft | 274 kts | 78° |
| 2026-05-05 15:47 | 10.81899 | 122.58224 | 7125 ft | 275 kts | 70° |
| 2026-05-05 15:47 | 10.82860 | 122.60611 | 6612 ft | 274 kts | 68° |
| 2026-05-05 15:47 | 10.83600 | 122.62386 | 6237 ft | 272 kts | 68° |
| 2026-05-05 15:48 | 10.84341 | 122.64153 | 5855 ft | 271 kts | 68° |
| 2026-05-05 15:48 | 10.85078 | 122.65909 | 5469 ft | 269 kts | 68° |
| 2026-05-05 15:48 | 10.85808 | 122.67655 | 5091 ft | 268 kts | 68° |
| 2026-05-05 15:48 | 10.86537 | 122.69394 | 4702 ft | 266 kts | 68° |
| 2026-05-05 15:49 | 10.87263 | 122.71123 | 4293 ft | 265 kts | 68° |
| 2026-05-05 15:49 | 10.88059 | 122.72794 | 4020 ft | 261 kts | 54° |
| 2026-05-05 15:49 | 10.89417 | 122.74022 | 4005 ft | 265 kts | 34° |
| 2026-05-05 15:49 | 10.91003 | 122.74999 | 4004 ft | 267 kts | 32° |
| 2026-05-05 15:50 | 10.92610 | 122.75946 | 4003 ft | 267 kts | 32° |
| 2026-05-05 15:50 | 10.94198 | 122.76870 | 4003 ft | 267 kts | 30° |
| 2026-05-05 15:50 | 10.95963 | 122.77431 | 4004 ft | 270 kts | 4° |
| 2026-05-05 15:50 | 10.97805 | 122.77085 | 4007 ft | 273 kts | 335° |
| 2026-05-05 15:51 | 10.99292 | 122.75890 | 4005 ft | 276 kts | 307° |
| 2026-05-05 15:51 | 11.00144 | 122.74143 | 4011 ft | 279 kts | 290° |
| 2026-05-05 15:51 | 11.00752 | 122.72264 | 4005 ft | 280 kts | 288° |
| 2026-05-05 15:51 | 11.01331 | 122.70373 | 4009 ft | 280 kts | 288° |
| 2026-05-05 15:52 | 11.01908 | 122.68479 | 4008 ft | 279 kts | 288° |
| 2026-05-05 15:52 | 11.02482 | 122.66585 | 4012 ft | 280 kts | 288° |
| 2026-05-05 15:52 | 11.03054 | 122.64693 | 4011 ft | 280 kts | 288° |
| 2026-05-05 15:52 | 11.03623 | 122.62802 | 4015 ft | 280 kts | 288° |
| 2026-05-05 15:53 | 11.04192 | 122.60911 | 4011 ft | 279 kts | 288° |
| 2026-05-05 15:53 | 11.04669 | 122.58993 | 4019 ft | 280 kts | 274° |
| 2026-05-05 15:53 | 11.04391 | 122.57059 | 4004 ft | 279 kts | 245° |
| 2026-05-05 15:53 | 11.03194 | 122.55585 | 3806 ft | 267 kts | 210° |
| 2026-05-05 15:54 | 11.01496 | 122.55090 | 3515 ft | 255 kts | 174° |
| 2026-05-05 15:54 | 10.99763 | 122.55324 | 3224 ft | 249 kts | 174° |
| 2026-05-05 15:54 | 10.98087 | 122.54976 | 2941 ft | 249 kts | 202° |
| 2026-05-05 15:54 | 10.96515 | 122.54257 | 2610 ft | 243 kts | 200° |
| 2026-05-05 15:55 | 10.94972 | 122.53650 | 2310 ft | 231 kts | 197° |
| 2026-05-05 15:55 | 10.93512 | 122.53111 | 2037 ft | 217 kts | 198° |
| 2026-05-05 15:55 | 10.92157 | 122.52612 | 1769 ft | 198 kts | 199° |
| 2026-05-05 15:55 | 10.90917 | 122.52154 | 1533 ft | 180 kts | 199° |
| 2026-05-05 15:56 | 10.89782 | 122.51733 | 1282 ft | 167 kts | 199° |
| 2026-05-05 15:56 | 10.88720 | 122.51342 | 1081 ft | 159 kts | 199° |
| 2026-05-05 15:56 | 10.87691 | 122.50961 | 878 ft | 156 kts | 200° |
| 2026-05-05 15:56 | 10.86682 | 122.50575 | 657 ft | 155 kts | 201° |
| 2026-05-05 15:57 | 10.85667 | 122.50192 | 432 ft | 157 kts | 200° |
| 2026-05-05 15:57 | 10.84656 | 122.49820 | 218 ft | 153 kts | 200° |
| 2026-05-05 15:57 | 10.83682 | 122.49474 | 143 ft | 142 kts | 199° |
| 2026-05-05 15:57 | 10.82907 | 122.49183 | 141 ft | 94 kts | 200° |
| 2026-05-05 15:58 | 10.82505 | 122.49040 | 142 ft | 29 kts | 199° |
| 2026-05-05 15:58 | 10.82421 | 122.49010 | 143 ft | 2 kts | 252° |
| 2026-05-05 15:58 | 10.82442 | 122.49015 | 143 ft | 8 kts | 29° |
| 2026-05-05 15:58 | 10.82506 | 122.49036 | 141 ft | 11 kts | 12° |
| 2026-05-05 15:59 | 10.82585 | 122.49048 | 138 ft | 13 kts | 25° |
| 2026-05-05 15:59 | 10.82687 | 122.49105 | 140 ft | 22 kts | 27° |
| 2026-05-05 15:59 | 10.82838 | 122.49165 | 138 ft | 24 kts | 19° |
| 2026-05-05 15:59 | 10.82993 | 122.49219 | 140 ft | 23 kts | 20° |
| 2026-05-05 16:00 | 10.83090 | 122.49276 | 141 ft | 14 kts | 63° |
| 2026-05-05 16:00 | 10.83073 | 122.49368 | 141 ft | 13 kts | 101° |
| 2026-05-05 16:00 | 10.83044 | 122.49449 | 140 ft | 11 kts | 117° |
| 2026-05-05 16:00 | 10.83032 | 122.49518 | 140 ft | 9 kts | 63° |
| 2026-05-05 16:01 | 10.83075 | 122.49544 | 140 ft | 6 kts | 23° |
| 2026-05-05 16:01 | 10.83110 | 122.49559 | 140 ft | 5 kts | 21° |
| 2026-05-05 16:01 | 10.83134 | 122.49571 | 140 ft | 3 kts | 46° |
| 2026-05-05 16:01 | 10.83136 | 122.49585 | 140 ft | 1 kts | 88° |
| 2026-05-05 16:02 | 10.83130 | 122.49606 | 140 ft | 6 kts | 111° |
| 2026-05-05 16:02 | 10.83117 | 122.49641 | 140 ft | 4 kts | 110° |
| 2026-05-05 16:02 | 10.83114 | 122.49648 | 140 ft | 0 kts | 110° |